createdAt,value
2019-04-11T00:01:10.030Z,8.10
2019-04-11T00:03:37.714Z,8.10
2019-04-11T00:06:05.455Z,8.10
2019-04-11T00:08:34.141Z,8.00
2019-04-11T00:11:02.480Z,8.00
2019-04-11T00:13:31.722Z,8.00
2019-04-11T00:15:59.278Z,8.00
2019-04-11T00:18:27.051Z,8.00
2019-04-11T00:20:54.592Z,8.00
2019-04-11T00:23:21.891Z,7.90
2019-04-11T00:25:49.651Z,7.90
2019-04-11T00:28:17.426Z,7.90
2019-04-11T00:30:45.098Z,7.80
2019-04-11T00:33:12.557Z,7.80
2019-04-11T00:35:40.024Z,7.80
2019-04-11T00:38:07.801Z,7.70
2019-04-11T00:40:35.466Z,7.70
2019-04-11T00:43:03.445Z,7.70
2019-04-11T00:45:31.779Z,7.60
2019-04-11T00:47:59.644Z,7.60
2019-04-11T00:50:27.394Z,7.60
2019-04-11T00:52:56.000Z,7.60
2019-04-11T00:55:23.818Z,7.50
2019-04-11T00:57:51.583Z,7.50
2019-04-11T01:00:20.954Z,7.50
2019-04-11T01:02:49.526Z,7.40
2019-04-11T01:05:17.203Z,7.40
2019-04-11T01:07:44.717Z,7.30
2019-04-11T01:10:12.232Z,7.30
2019-04-11T01:12:40.691Z,7.30
2019-04-11T01:15:11.232Z,7.30
2019-04-11T01:17:39.242Z,7.30
2019-04-11T01:20:07.699Z,7.30
2019-04-11T01:22:36.226Z,7.20
2019-04-11T01:25:04.235Z,7.10
2019-04-11T01:27:32.098Z,7.20
2019-04-11T01:29:59.913Z,7.10
2019-04-11T01:32:28.437Z,7.10
2019-04-11T01:34:57.074Z,7.10
2019-04-11T01:37:25.924Z,7.00
2019-04-11T01:39:59.410Z,7.00
2019-04-11T01:42:27.083Z,6.90
2019-04-11T01:44:54.817Z,6.90
2019-04-11T01:47:37.516Z,6.90
2019-04-11T01:50:04.999Z,6.80
2019-04-11T01:52:32.582Z,6.80
2019-04-11T01:55:00.055Z,6.80
2019-04-11T01:57:27.617Z,6.70
2019-04-11T01:59:55.582Z,6.60
2019-04-11T02:02:42.329Z,6.60
2019-04-11T02:05:25.081Z,6.50
2019-04-11T02:07:53.238Z,6.60
2019-04-11T02:10:21.057Z,6.50
2019-04-11T02:12:48.579Z,6.50
2019-04-11T02:15:16.455Z,6.40
2019-04-11T02:17:45.126Z,6.40
2019-04-11T02:20:12.624Z,6.40
2019-04-11T02:22:44.066Z,6.30
2019-04-11T02:25:30.380Z,6.30
2019-04-11T02:28:00.128Z,6.30
2019-04-11T02:30:28.422Z,6.20
2019-04-11T02:32:58.281Z,6.20
2019-04-11T02:35:26.780Z,6.20
2019-04-11T02:37:55.068Z,6.10
2019-04-11T02:40:24.675Z,6.10
2019-04-11T02:42:54.764Z,6.10
2019-04-11T02:45:36.710Z,6.00
2019-04-11T02:47:54.353Z,6.00
2019-04-11T02:50:23.753Z,6.00
2019-04-11T02:52:52.061Z,5.90
2019-04-11T02:55:21.049Z,5.90
2019-04-11T02:57:50.166Z,5.90
2019-04-11T03:00:18.119Z,5.80
2019-04-11T03:02:47.922Z,5.80
2019-04-11T03:05:16.364Z,5.80
2019-04-11T03:07:45.729Z,5.70
2019-04-11T03:10:14.190Z,5.70
2019-04-11T03:12:43.346Z,5.60
2019-04-11T03:15:28.892Z,5.60
2019-04-11T03:17:43.822Z,5.60
2019-04-11T03:20:19.777Z,5.60
2019-04-11T03:22:40.639Z,5.60
2019-04-11T03:25:08.621Z,5.50
2019-04-11T03:27:37.145Z,5.50
2019-04-11T03:30:10.089Z,5.40
2019-04-11T03:33:25.473Z,5.40
2019-04-11T03:36:07.794Z,5.30
2019-04-11T03:37:59.001Z,5.30
2019-04-11T03:40:27.065Z,5.20
2019-04-11T03:42:46.511Z,5.30
2019-04-11T03:45:27.526Z,5.20
2019-04-11T03:47:44.702Z,5.20
2019-04-11T03:50:12.200Z,5.20
2019-04-11T03:52:34.633Z,5.10
2019-04-11T03:55:06.260Z,5.10
2019-04-11T03:57:34.293Z,5.10
2019-04-11T04:00:04.232Z,5.00
2019-04-11T04:02:32.783Z,5.00
2019-04-11T04:05:01.371Z,4.90
2019-04-11T04:07:29.826Z,4.90
2019-04-11T04:09:58.451Z,4.90
2019-04-11T04:12:27.308Z,4.90
2019-04-11T04:15:10.855Z,4.80
2019-04-11T04:17:49.736Z,4.80
2019-04-11T04:20:41.857Z,4.70
2019-04-11T04:23:31.481Z,4.70
2019-04-11T04:26:01.087Z,4.70
2019-04-11T04:28:29.473Z,4.60
2019-04-11T04:30:57.979Z,4.60
2019-04-11T04:33:26.605Z,4.50
2019-04-11T04:35:56.028Z,4.50
2019-04-11T04:38:24.062Z,4.50
2019-04-11T04:41:08.844Z,4.50
2019-04-11T04:43:25.136Z,4.50
2019-04-11T04:46:08.450Z,4.50
2019-04-11T04:48:26.361Z,4.40
2019-04-11T04:51:04.000Z,4.40
2019-04-11T04:53:28.590Z,4.40
2019-04-11T04:55:57.435Z,4.40
2019-04-11T04:58:26.498Z,4.40
2019-04-11T05:00:56.020Z,4.30
2019-04-11T05:03:24.510Z,4.30
2019-04-11T05:05:53.420Z,4.20
2019-04-11T05:08:22.892Z,4.20
2019-04-11T05:10:51.260Z,4.20
2019-04-11T05:13:19.452Z,4.20
2019-04-11T05:15:47.071Z,4.20
2019-04-11T05:18:15.556Z,4.20
2019-04-11T05:20:44.206Z,4.10
2019-04-11T05:23:11.987Z,4.10
2019-04-11T05:25:39.355Z,4.10
2019-04-11T05:28:06.859Z,4.10
2019-04-11T05:30:34.315Z,4.10
2019-04-11T05:33:01.853Z,4.10
2019-04-11T05:35:29.895Z,4.10
2019-04-11T05:37:57.919Z,4.20
2019-04-11T05:40:25.979Z,4.10
2019-04-11T05:42:54.220Z,4.10
2019-04-11T05:45:24.923Z,4.10
2019-04-11T05:47:54.909Z,4.10
2019-04-11T05:50:28.470Z,4.10
2019-04-11T05:53:00.079Z,4.10
2019-04-11T05:55:28.070Z,4.10
2019-04-11T05:57:56.188Z,4.20
2019-04-11T06:00:37.641Z,4.20
2019-04-11T06:03:06.014Z,4.20
2019-04-11T06:06:10.870Z,4.30
2019-04-11T06:08:39.817Z,4.30
2019-04-11T06:11:14.449Z,4.40
2019-04-11T06:13:45.133Z,4.40
2019-04-11T06:16:12.585Z,4.40
2019-04-11T06:18:58.803Z,4.40
2019-04-11T06:21:30.074Z,4.40
2019-04-11T06:24:16.308Z,4.50
2019-04-11T06:27:04.034Z,4.50
2019-04-11T06:29:57.022Z,4.50
2019-04-11T06:32:45.762Z,4.70
2019-04-11T06:35:19.940Z,4.60
2019-04-11T06:38:06.113Z,4.70
2019-04-11T06:40:41.860Z,4.70
2019-04-11T06:43:40.857Z,4.80
2019-04-11T06:46:29.231Z,4.90
2019-04-11T06:49:04.481Z,5.00
2019-04-11T06:51:37.811Z,5.00
2019-04-11T06:54:25.219Z,5.00
2019-04-11T06:56:53.825Z,5.10
2019-04-11T06:59:26.093Z,5.10
2019-04-11T07:01:55.058Z,5.10
2019-04-11T07:04:29.602Z,5.10
2019-04-11T07:06:57.060Z,5.20
2019-04-11T07:09:39.310Z,5.30
2019-04-11T07:12:10.829Z,5.20
2019-04-11T07:14:58.081Z,5.30
2019-04-11T07:17:43.878Z,5.30
2019-04-11T07:20:29.747Z,5.40
2019-04-11T07:23:15.652Z,5.40
2019-04-11T07:25:47.392Z,5.50
2019-04-11T07:28:25.234Z,5.60
2019-04-11T07:31:19.280Z,5.60
2019-04-11T07:34:10.556Z,5.80
2019-04-11T07:37:10.464Z,5.70
2019-04-11T07:40:00.838Z,5.80
2019-04-11T07:42:49.397Z,5.90
2019-04-11T07:45:23.081Z,5.70
2019-04-11T07:47:54.988Z,5.90
2019-04-11T07:50:23.137Z,5.80
2019-04-11T07:52:55.865Z,5.80
2019-04-11T07:55:25.686Z,5.90
2019-04-11T07:58:11.582Z,6.00
2019-04-11T08:00:53.341Z,6.10
2019-04-11T08:03:40.026Z,6.10
2019-04-11T08:06:45.681Z,6.20
2019-04-11T08:09:26.780Z,6.20
2019-04-11T08:12:00.131Z,6.30
2019-04-11T08:14:51.063Z,6.40
2019-04-11T08:17:32.093Z,6.50
2019-04-11T08:20:09.671Z,6.40
2019-04-11T08:22:45.608Z,6.50
2019-04-11T08:25:21.620Z,6.60
2019-04-11T08:27:59.985Z,6.60
2019-04-11T08:30:27.825Z,6.70
2019-04-11T08:32:58.149Z,6.70
2019-04-11T08:35:51.971Z,6.80
2019-04-11T08:38:22.510Z,6.80
2019-04-11T08:40:58.899Z,6.90
2019-04-11T08:43:28.950Z,6.90
2019-04-11T08:46:00.403Z,6.90
2019-04-11T08:48:29.296Z,7.00
2019-04-11T08:51:01.196Z,7.10
2019-04-11T08:53:46.900Z,7.00
2019-04-11T08:56:14.668Z,7.10
2019-04-11T08:59:35.849Z,7.10
2019-04-11T09:02:04.922Z,7.20
2019-04-11T09:05:13.090Z,7.30
2019-04-11T09:07:41.660Z,7.40
2019-04-11T09:10:28.275Z,7.40
2019-04-11T09:13:02.792Z,7.50
2019-04-11T09:15:48.876Z,7.60
2019-04-11T09:18:17.669Z,7.60
2019-04-11T09:21:04.296Z,7.50
2019-04-11T09:23:31.848Z,7.50
2019-04-11T09:26:32.008Z,7.60
2019-04-11T09:29:03.876Z,7.60
2019-04-11T09:31:58.041Z,7.70
2019-04-11T09:34:48.231Z,7.80
2019-04-11T09:37:36.036Z,7.80
2019-04-11T09:40:26.069Z,7.80
2019-04-11T09:43:12.398Z,7.90
2019-04-11T09:45:50.863Z,7.80
2019-04-11T09:48:42.081Z,7.80
2019-04-11T09:51:29.446Z,7.90
2019-04-11T09:54:08.721Z,7.90
2019-04-11T09:57:00.255Z,8.00
2019-04-11T09:59:41.127Z,8.00
2019-04-11T10:02:31.162Z,8.00
2019-04-11T10:05:01.404Z,8.10
2019-04-11T10:08:06.490Z,8.10
2019-04-11T10:10:53.264Z,8.20
2019-04-11T10:13:49.252Z,8.20
2019-04-11T10:16:42.290Z,8.20
2019-04-11T10:19:32.045Z,8.20
2019-04-11T10:22:04.889Z,8.30
2019-04-11T10:24:48.786Z,8.40
2019-04-11T10:27:24.868Z,8.40
2019-04-11T10:30:10.303Z,8.40
2019-04-11T10:32:43.373Z,8.40
2019-04-11T10:35:30.274Z,8.40
2019-04-11T10:37:58.514Z,8.50
2019-04-11T10:40:54.620Z,8.60
2019-04-11T10:43:22.429Z,8.60
2019-04-11T10:46:11.288Z,8.60
2019-04-11T10:48:48.786Z,8.50
2019-04-11T10:51:26.820Z,8.70
2019-04-11T10:53:55.487Z,8.60
2019-04-11T10:56:55.775Z,8.60
2019-04-11T10:59:27.759Z,8.80
2019-04-11T11:02:23.018Z,8.80
2019-04-11T11:04:53.195Z,8.80
2019-04-11T11:07:24.686Z,8.90
2019-04-11T11:10:15.391Z,8.90
2019-04-11T11:12:54.276Z,8.90
2019-04-11T11:15:25.322Z,8.90
2019-04-11T11:18:32.018Z,8.90
2019-04-11T11:20:45.665Z,9.00
2019-04-11T11:23:29.030Z,9.00
2019-04-11T11:26:03.324Z,9.00
2019-04-11T11:28:32.278Z,9.00
2019-04-11T11:31:18.198Z,9.00
2019-04-11T11:33:46.804Z,9.10
2019-04-11T11:36:43.647Z,9.10
2019-04-11T11:39:33.481Z,9.20
2019-04-11T11:42:20.552Z,9.20
2019-04-11T11:44:53.021Z,9.20
2019-04-11T11:47:39.983Z,9.30
2019-04-11T11:50:15.706Z,9.30
2019-04-11T11:52:57.945Z,9.40
2019-04-11T11:55:29.443Z,9.40
2019-04-11T11:58:17.351Z,9.40
2019-04-11T12:00:48.043Z,9.50
2019-04-11T12:03:40.316Z,9.50
2019-04-11T12:06:07.378Z,9.50
2019-04-11T12:08:54.414Z,9.50
2019-04-11T12:11:22.246Z,9.60
2019-04-11T12:14:07.735Z,9.70
2019-04-11T12:17:05.243Z,9.70
2019-04-11T12:19:53.859Z,9.60
2019-04-11T12:22:20.180Z,9.70
2019-04-11T12:24:54.009Z,9.70
2019-04-11T12:27:41.898Z,9.70
2019-04-11T12:30:20.852Z,9.70
2019-04-11T12:32:55.281Z,9.80
2019-04-11T12:35:40.902Z,9.90
2019-04-11T12:38:14.481Z,9.90
2019-04-11T12:41:03.903Z,9.90
2019-04-11T12:43:49.473Z,10.00
2019-04-11T12:46:34.997Z,10.00
2019-04-11T12:49:10.734Z,9.90
2019-04-11T12:52:12.751Z,9.90
2019-04-11T12:54:41.174Z,10.10
2019-04-11T12:57:26.940Z,10.00
2019-04-11T13:00:02.450Z,10.10
2019-04-11T13:02:53.490Z,10.10
2019-04-11T13:05:21.701Z,10.10
2019-04-11T13:08:11.395Z,10.20
2019-04-11T13:10:39.350Z,10.10
2019-04-11T13:13:23.077Z,10.10
2019-04-11T13:15:56.674Z,10.10
2019-04-11T13:18:43.630Z,10.10
2019-04-11T13:21:36.713Z,10.10
2019-04-11T13:24:22.587Z,10.10
2019-04-11T13:27:10.311Z,10.10
2019-04-11T13:30:02.755Z,10.10
2019-04-11T13:33:06.827Z,10.10
2019-04-11T13:36:05.523Z,10.20
2019-04-11T13:38:36.450Z,10.20
2019-04-11T13:41:26.090Z,10.10
2019-04-11T13:44:02.453Z,10.10
2019-04-11T13:46:49.461Z,10.10
2019-04-11T13:49:36.722Z,10.20
2019-04-11T13:52:23.839Z,10.20
2019-04-11T13:55:01.272Z,10.20
2019-04-11T13:57:54.002Z,10.30
2019-04-11T14:00:39.483Z,10.40
2019-04-11T14:03:18.270Z,10.30
2019-04-11T14:05:45.645Z,10.40
2019-04-11T14:08:17.969Z,10.40
2019-04-11T14:11:01.863Z,10.40
2019-04-11T14:13:37.340Z,10.50
2019-04-11T14:16:10.143Z,10.50
2019-04-11T14:18:46.876Z,10.50
2019-04-11T14:21:17.155Z,10.50
2019-04-11T14:24:17.378Z,10.60
2019-04-11T14:26:47.142Z,10.60
2019-04-11T14:29:36.694Z,10.60
2019-04-11T14:32:24.185Z,10.50
2019-04-11T14:35:23.062Z,10.60
2019-04-11T14:38:11.555Z,10.60
2019-04-11T14:41:11.864Z,10.60
2019-04-11T14:43:45.891Z,10.60
2019-04-11T14:46:21.779Z,10.60
2019-04-11T14:49:10.539Z,10.60
2019-04-11T14:51:52.983Z,10.60
2019-04-11T14:54:24.226Z,10.70
2019-04-11T14:57:00.258Z,10.80
2019-04-11T14:59:47.164Z,10.70
2019-04-11T15:02:30.879Z,10.70
2019-04-11T15:05:17.794Z,10.70
2019-04-11T15:07:46.058Z,10.70
2019-04-11T15:10:33.372Z,10.70
2019-04-11T15:13:00.837Z,10.70
2019-04-11T15:15:34.389Z,10.70
2019-04-11T15:18:03.260Z,10.80
2019-04-11T15:20:54.139Z,10.80
2019-04-11T15:23:24.270Z,10.70
2019-04-11T15:26:11.274Z,10.70
2019-04-11T15:28:52.420Z,10.70
2019-04-11T15:31:39.425Z,10.70
2019-04-11T15:34:28.360Z,10.70
2019-04-11T15:37:04.809Z,10.70
2019-04-11T15:39:56.691Z,10.70
2019-04-11T15:42:40.210Z,10.70
2019-04-11T15:45:30.554Z,10.60
2019-04-11T15:48:32.670Z,10.60
2019-04-11T15:51:19.206Z,10.60
2019-04-11T15:54:27.570Z,10.60
2019-04-11T15:57:18.245Z,10.60
2019-04-11T16:00:05.176Z,10.70
2019-04-11T16:02:53.633Z,10.70
2019-04-11T16:05:49.422Z,10.70
2019-04-11T16:08:43.306Z,10.60
2019-04-11T16:11:28.793Z,10.60
2019-04-11T16:14:18.726Z,10.60
2019-04-11T16:17:13.990Z,10.60
2019-04-11T16:19:49.705Z,10.50
2019-04-11T16:22:50.265Z,10.50
2019-04-11T16:25:19.750Z,10.50
2019-04-11T16:28:07.924Z,10.50
2019-04-11T16:31:04.248Z,10.50
2019-04-11T16:33:57.262Z,10.40
2019-04-11T16:36:45.490Z,10.40
2019-04-11T16:39:44.850Z,10.40
2019-04-11T16:42:13.873Z,10.40
2019-04-11T16:44:59.781Z,10.40
2019-04-11T16:47:41.737Z,10.40
2019-04-11T16:50:09.741Z,10.40
2019-04-11T16:52:38.522Z,10.40
2019-04-11T16:55:09.786Z,10.30
2019-04-11T16:57:36.466Z,10.30
2019-04-11T17:00:09.189Z,10.30
2019-04-11T17:02:37.116Z,10.30
2019-04-11T17:05:06.656Z,10.30
2019-04-11T17:07:47.973Z,10.20
2019-04-11T17:10:16.477Z,10.20
2019-04-11T17:12:43.921Z,10.20
2019-04-11T17:15:11.584Z,10.20
2019-04-11T17:17:38.986Z,10.20
2019-04-11T17:20:06.698Z,10.10
2019-04-11T17:22:34.274Z,10.10
2019-04-11T17:25:01.991Z,10.00
2019-04-11T17:27:29.534Z,10.00
2019-04-11T17:29:57.098Z,10.00
2019-04-11T17:32:25.800Z,9.90
2019-04-11T17:34:54.900Z,9.90
2019-04-11T17:37:22.443Z,9.90
2019-04-11T17:39:49.911Z,9.80
2019-04-11T17:42:17.437Z,9.80
2019-04-11T17:44:45.021Z,9.70
2019-04-11T17:47:12.806Z,9.60
2019-04-11T17:49:40.278Z,9.60
2019-04-11T17:52:07.739Z,9.50
2019-04-11T17:54:35.784Z,9.40
2019-04-11T17:57:03.783Z,9.40
2019-04-11T17:59:31.286Z,9.40
2019-04-11T18:01:59.009Z,9.40
2019-04-11T18:04:26.410Z,9.30
2019-04-11T18:06:53.957Z,9.20
2019-04-11T18:09:25.523Z,9.20
2019-04-11T18:11:50.951Z,9.10
2019-04-11T18:14:18.448Z,9.10
2019-04-11T18:16:46.047Z,9.00
2019-04-11T18:19:13.792Z,9.00
2019-04-11T18:21:41.433Z,8.90
2019-04-11T18:24:09.039Z,8.90
2019-04-11T18:26:36.534Z,8.90
2019-04-11T18:29:03.936Z,8.80
2019-04-11T18:31:31.356Z,8.80
2019-04-11T18:34:01.553Z,8.70
2019-04-11T18:36:31.762Z,8.70
2019-04-11T18:38:57.524Z,8.60
2019-04-11T18:41:24.965Z,8.60
2019-04-11T18:43:52.473Z,8.50
2019-04-11T18:46:19.853Z,8.50
2019-04-11T18:48:47.402Z,8.40
2019-04-11T18:51:14.869Z,8.30
2019-04-11T18:53:42.378Z,8.40
2019-04-11T18:56:09.838Z,8.30
2019-04-11T18:58:37.281Z,8.30
2019-04-11T19:01:08.819Z,8.20
2019-04-11T19:03:36.592Z,8.20
2019-04-11T19:06:04.546Z,8.20
2019-04-11T19:08:32.264Z,8.10
2019-04-11T19:10:59.852Z,8.10
2019-04-11T19:13:27.307Z,8.00
2019-04-11T19:15:55.754Z,8.00
2019-04-11T19:18:23.288Z,7.90
2019-04-11T19:20:50.952Z,7.90
2019-04-11T19:23:18.491Z,7.90
2019-04-11T19:25:45.961Z,7.90
2019-04-11T19:28:13.510Z,7.80
2019-04-11T19:30:42.410Z,7.80
2019-04-11T19:33:09.885Z,7.70
2019-04-11T19:35:41.391Z,7.70
2019-04-11T19:38:12.002Z,7.70
2019-04-11T19:40:39.637Z,7.60
2019-04-11T19:43:07.116Z,7.60
2019-04-11T19:45:35.849Z,7.50
2019-04-11T19:48:05.327Z,7.50
2019-04-11T19:50:37.839Z,7.50
2019-04-11T19:53:05.965Z,7.50
2019-04-11T19:56:15.319Z,7.40
2019-04-11T19:58:46.329Z,7.40
2019-04-11T20:01:13.901Z,7.40
2019-04-11T20:03:45.517Z,7.40
2019-04-11T20:06:28.562Z,7.30
2019-04-11T20:08:47.978Z,7.30
2019-04-11T20:11:15.486Z,7.30
2019-04-11T20:13:42.977Z,7.20
2019-04-11T20:16:12.533Z,7.20
2019-04-11T20:18:50.459Z,7.20
2019-04-11T20:21:09.145Z,7.10
2019-04-11T20:23:36.557Z,7.10
2019-04-11T20:26:04.082Z,7.10
2019-04-11T20:28:32.526Z,7.10
2019-04-11T20:31:01.246Z,7.00
2019-04-11T20:33:34.685Z,7.00
2019-04-11T20:36:01.968Z,7.00
2019-04-11T20:38:29.306Z,7.00
2019-04-11T20:40:56.744Z,7.00
2019-04-11T20:43:25.764Z,6.90
2019-04-11T20:45:54.211Z,6.90
2019-04-11T20:48:22.033Z,6.90
2019-04-11T20:50:55.813Z,6.90
2019-04-11T20:53:25.270Z,6.80
2019-04-11T20:55:52.585Z,6.80
2019-04-11T20:58:27.050Z,6.80
2019-04-11T21:00:53.225Z,6.80
2019-04-11T21:03:18.696Z,6.70
2019-04-11T21:05:50.542Z,6.70
2019-04-11T21:11:13.089Z,6.70
2019-04-11T21:13:40.954Z,6.60
2019-04-11T21:16:08.518Z,6.60
2019-04-11T21:18:37.235Z,6.60
2019-04-11T21:21:04.737Z,6.60
2019-04-11T21:23:38.548Z,6.60
2019-04-11T21:26:09.594Z,6.50
2019-04-11T21:28:48.408Z,6.50
2019-04-11T21:31:21.070Z,6.50
2019-04-11T21:33:49.921Z,6.40
2019-04-11T21:36:21.831Z,6.40
2019-04-11T21:38:49.773Z,6.40
2019-04-11T21:41:24.355Z,6.40
2019-04-11T21:43:59.565Z,6.30
2019-04-11T21:46:31.794Z,6.30
2019-04-11T21:48:59.280Z,6.30
2019-04-11T21:51:26.710Z,6.30
2019-04-11T21:53:59.113Z,6.20
2019-04-11T21:56:32.990Z,6.20
2019-04-11T21:59:04.689Z,6.20
2019-04-11T22:01:34.322Z,6.20
2019-04-11T22:04:05.665Z,6.10
2019-04-11T22:06:42.246Z,6.10
2019-04-11T22:09:14.059Z,6.10
2019-04-11T22:11:45.950Z,6.00
2019-04-11T22:14:18.436Z,6.00
2019-04-11T22:16:45.900Z,6.00
2019-04-11T22:19:16.187Z,6.00
2019-04-11T22:21:47.148Z,6.00
2019-04-11T22:24:25.832Z,5.90
2019-04-11T22:26:58.726Z,5.90
2019-04-11T22:29:29.559Z,5.90
2019-04-11T22:32:07.626Z,5.80
2019-04-11T22:34:42.719Z,5.80
2019-04-11T22:37:13.056Z,5.80
2019-04-11T22:39:45.726Z,5.80
2019-04-11T22:42:15.324Z,5.70
2019-04-11T22:44:50.679Z,5.70
2019-04-11T22:47:18.348Z,5.70
2019-04-11T22:49:51.538Z,5.60
2019-04-11T22:52:19.073Z,5.60
2019-04-11T22:54:53.987Z,5.60
2019-04-11T22:57:24.936Z,5.60
2019-04-11T22:59:55.705Z,5.50
2019-04-11T23:02:47.407Z,5.50
2019-04-11T23:05:22.096Z,5.40
2019-04-11T23:07:55.611Z,5.40
2019-04-11T23:10:34.676Z,5.40
2019-04-11T23:13:10.978Z,5.30
2019-04-11T23:15:38.590Z,5.30
2019-04-11T23:18:09.037Z,5.30
2019-04-11T23:20:46.428Z,5.30
2019-04-11T23:23:16.066Z,5.20
2019-04-11T23:25:55.039Z,5.20
2019-04-11T23:28:22.559Z,5.20
2019-04-11T23:30:56.303Z,5.10
2019-04-11T23:33:27.162Z,5.10
2019-04-11T23:35:57.220Z,5.10
2019-04-11T23:38:26.569Z,5.10
2019-04-11T23:41:09.221Z,5.00
2019-04-11T23:43:29.883Z,5.00
2019-04-11T23:46:15.188Z,5.00
2019-04-11T23:48:42.612Z,4.90
2019-04-11T23:51:10.054Z,4.90
2019-04-11T23:53:38.500Z,4.90
2019-04-11T23:56:05.739Z,4.90
2019-04-11T23:58:33.129Z,4.80
